sensor_id;sensor_type;location;lat;lon;timestamp;temperature;humidity
6863;DHT22;3470;48.738;9.616;2023-06-26T12:19:00;39.60;50.00
6863;DHT22;3470;48.738;9.616;2023-06-26T12:24:08;36.80;53.30
6863;DHT22;3470;48.738;9.616;2023-06-26T12:26:34;35.30;54.60
6863;DHT22;3470;48.738;9.616;2023-06-26T12:29:09;33.80;57.50
6863;DHT22;3470;48.738;9.616;2023-06-26T12:31:35;32.80;59.70
6863;DHT22;3470;48.738;9.616;2023-06-26T12:34:12;32.90;60.30
6863;DHT22;3470;48.738;9.616;2023-06-26T12:36:45;32.50;61.30
6863;DHT22;3470;48.738;9.616;2023-06-26T12:39:11;32.30;62.20
6863;DHT22;3470;48.738;9.616;2023-06-26T12:41:52;32.80;61.80
6863;DHT22;3470;48.738;9.616;2023-06-26T12:44:21;34.30;59.30
6863;DHT22;3470;48.738;9.616;2023-06-26T12:46:48;34.90;58.60
6863;DHT22;3470;48.738;9.616;2023-06-26T12:49:15;35.50;57.60
6863;DHT22;3470;48.738;9.616;2023-06-26T12:51:40;36.40;56.90
6863;DHT22;3470;48.738;9.616;2023-06-26T12:54:06;36.60;57.10
6863;DHT22;3470;48.738;9.616;2023-06-26T12:56:31;37.50;55.70
6863;DHT22;3470;48.738;9.616;2023-06-26T12:58:57;37.90;54.70
6863;DHT22;3470;48.738;9.616;2023-06-26T13:01:23;37.80;54.70
6863;DHT22;3470;48.738;9.616;2023-06-26T13:03:50;37.40;55.70
6863;DHT22;3470;48.738;9.616;2023-06-26T13:06:17;37.60;55.30
6863;DHT22;3470;48.738;9.616;2023-06-26T13:08:42;37.80;55.10
6863;DHT22;3470;48.738;9.616;2023-06-26T13:11:09;37.80;55.40
6863;DHT22;3470;48.738;9.616;2023-06-26T13:13:34;37.90;55.50
6863;DHT22;3470;48.738;9.616;2023-06-26T13:16:00;38.00;55.00
6863;DHT22;3470;48.738;9.616;2023-06-26T13:18:26;38.20;55.10
6863;DHT22;3470;48.738;9.616;2023-06-26T13:20:51;38.40;54.00
6863;DHT22;3470;48.738;9.616;2023-06-26T13:23:17;37.90;54.80
6863;DHT22;3470;48.738;9.616;2023-06-26T13:25:44;37.50;55.60
6863;DHT22;3470;48.738;9.616;2023-06-26T13:28:10;38.30;55.20
6863;DHT22;3470;48.738;9.616;2023-06-26T13:30:36;38.80;54.40
6863;DHT22;3470;48.738;9.616;2023-06-26T13:33:01;38.70;53.70
6863;DHT22;3470;48.738;9.616;2023-06-26T13:35:27;38.20;54.40
6863;DHT22;3470;48.738;9.616;2023-06-26T13:37:53;38.10;55.10
6863;DHT22;3470;48.738;9.616;2023-06-26T13:40:19;38.10;54.60
6863;DHT22;3470;48.738;9.616;2023-06-26T13:42:44;37.60;55.40
6863;DHT22;3470;48.738;9.616;2023-06-26T13:45:10;37.90;55.20
6863;DHT22;3470;48.738;9.616;2023-06-26T13:47:36;36.70;56.60
6863;DHT22;3470;48.738;9.616;2023-06-26T13:50:07;35.90;58.00
6863;DHT22;3470;48.738;9.616;2023-06-26T13:52:32;35.20;58.50
6863;DHT22;3470;48.738;9.616;2023-06-26T13:54:58;34.50;59.70
6863;DHT22;3470;48.738;9.616;2023-06-26T13:57:23;34.10;60.50
6863;DHT22;3470;48.738;9.616;2023-06-26T13:59:49;34.00;60.60
6863;DHT22;3470;48.738;9.616;2023-06-26T14:02:15;34.80;59.20
6863;DHT22;3470;48.738;9.616;2023-06-26T14:04:40;35.10;58.60
6863;DHT22;3470;48.738;9.616;2023-06-26T14:07:06;35.40;58.00
6863;DHT22;3470;48.738;9.616;2023-06-26T14:09:32;35.40;57.60
6863;DHT22;3470;48.738;9.616;2023-06-26T14:11:58;35.40;57.70
6863;DHT22;3470;48.738;9.616;2023-06-26T14:14:23;35.60;57.20
6863;DHT22;3470;48.738;9.616;2023-06-26T14:16:49;35.80;56.70
6863;DHT22;3470;48.738;9.616;2023-06-26T14:19:14;35.30;56.80
6863;DHT22;3470;48.738;9.616;2023-06-26T14:21:43;35.80;56.60
6863;DHT22;3470;48.738;9.616;2023-06-26T14:24:08;35.50;56.60
6863;DHT22;3470;48.738;9.616;2023-06-26T14:26:34;35.50;56.60
6863;DHT22;3470;48.738;9.616;2023-06-26T14:29:00;35.80;56.90
6863;DHT22;3470;48.738;9.616;2023-06-26T14:31:26;35.50;56.20
6863;DHT22;3470;48.738;9.616;2023-06-26T14:33:52;35.00;56.30
6863;DHT22;3470;48.738;9.616;2023-06-26T14:36:17;34.30;57.40
6863;DHT22;3470;48.738;9.616;2023-06-26T14:38:44;33.70;58.30
6863;DHT22;3470;48.738;9.616;2023-06-26T14:41:10;33.30;58.40
6863;DHT22;3470;48.738;9.616;2023-06-26T14:43:36;34.10;57.50
6863;DHT22;3470;48.738;9.616;2023-06-26T14:46:01;34.50;56.30
6863;DHT22;3470;48.738;9.616;2023-06-26T14:48:27;34.70;55.20
6863;DHT22;3470;48.738;9.616;2023-06-26T14:50:52;34.50;54.90
6863;DHT22;3470;48.738;9.616;2023-06-26T14:53:18;35.00;54.50
6863;DHT22;3470;48.738;9.616;2023-06-26T14:55:43;34.50;54.40
6863;DHT22;3470;48.738;9.616;2023-06-26T14:58:09;34.10;54.80
6863;DHT22;3470;48.738;9.616;2023-06-26T15:00:34;33.40;55.70
6863;DHT22;3470;48.738;9.616;2023-06-26T15:03:00;33.70;55.50
6863;DHT22;3470;48.738;9.616;2023-06-26T15:05:26;34.10;54.30
6863;DHT22;3470;48.738;9.616;2023-06-26T15:07:51;33.90;54.10
6863;DHT22;3470;48.738;9.616;2023-06-26T15:10:17;34.60;54.10
6863;DHT22;3470;48.738;9.616;2023-06-26T15:12:43;35.00;54.00
6863;DHT22;3470;48.738;9.616;2023-06-26T15:15:09;34.90;53.80
6863;DHT22;3470;48.738;9.616;2023-06-26T15:17:35;34.90;53.70
6863;DHT22;3470;48.738;9.616;2023-06-26T15:20:00;34.20;54.20
6863;DHT22;3470;48.738;9.616;2023-06-26T15:22:27;34.10;54.70
6863;DHT22;3470;48.738;9.616;2023-06-26T15:24:53;33.70;54.70
6863;DHT22;3470;48.738;9.616;2023-06-26T15:27:18;33.70;54.90
6863;DHT22;3470;48.738;9.616;2023-06-26T15:29:44;33.60;55.00
6863;DHT22;3470;48.738;9.616;2023-06-26T15:32:10;33.40;55.20
6863;DHT22;3470;48.738;9.616;2023-06-26T15:34:35;32.90;55.80
6863;DHT22;3470;48.738;9.616;2023-06-26T15:37:01;32.90;56.30
6863;DHT22;3470;48.738;9.616;2023-06-26T15:39:27;32.90;56.20
6863;DHT22;3470;48.738;9.616;2023-06-26T15:41:52;32.80;56.90
6863;DHT22;3470;48.738;9.616;2023-06-26T15:44:18;33.00;56.40
6863;DHT22;3470;48.738;9.616;2023-06-26T15:46:44;32.70;56.40
6863;DHT22;3470;48.738;9.616;2023-06-26T15:49:10;32.80;56.90
6863;DHT22;3470;48.738;9.616;2023-06-26T15:51:35;32.40;57.20
6863;DHT22;3470;48.738;9.616;2023-06-26T15:54:03;32.50;57.30
6863;DHT22;3470;48.738;9.616;2023-06-26T15:56:29;32.00;58.10
6863;DHT22;3470;48.738;9.616;2023-06-26T15:58:54;31.50;58.70
6863;DHT22;3470;48.738;9.616;2023-06-26T16:01:20;30.70;60.20
6863;DHT22;3470;48.738;9.616;2023-06-26T16:03:46;30.00;61.40
6863;DHT22;3470;48.738;9.616;2023-06-26T16:06:12;29.30;61.80
6863;DHT22;3470;48.738;9.616;2023-06-26T16:08:38;28.80;63.50
6863;DHT22;3470;48.738;9.616;2023-06-26T16:11:06;28.70;64.20
6863;DHT22;3470;48.738;9.616;2023-06-26T16:13:32;28.50;64.30
6863;DHT22;3470;48.738;9.616;2023-06-26T16:15:58;28.40;65.00
6863;DHT22;3470;48.738;9.616;2023-06-26T16:18:24;28.10;65.10
6863;DHT22;3470;48.738;9.616;2023-06-26T16:20:50;27.90;65.80
6863;DHT22;3470;48.738;9.616;2023-06-26T16:23:16;27.80;65.60
6863;DHT22;3470;48.738;9.616;2023-06-26T16:25:42;27.70;66.60
6863;DHT22;3470;48.738;9.616;2023-06-26T16:28:08;27.60;66.30
6863;DHT22;3470;48.738;9.616;2023-06-26T16:30:33;27.40;66.30
6863;DHT22;3470;48.738;9.616;2023-06-26T16:32:59;27.20;67.00
6863;DHT22;3470;48.738;9.616;2023-06-26T16:35:27;27.00;67.60
6863;DHT22;3470;48.738;9.616;2023-06-26T16:37:55;26.90;67.80
6863;DHT22;3470;48.738;9.616;2023-06-26T16:40:21;26.80;67.90
6863;DHT22;3470;48.738;9.616;2023-06-26T16:42:48;26.70;67.90
6863;DHT22;3470;48.738;9.616;2023-06-26T16:45:13;26.80;68.70
6863;DHT22;3470;48.738;9.616;2023-06-26T16:47:39;26.80;68.00
6863;DHT22;3470;48.738;9.616;2023-06-26T16:50:05;26.80;68.30
6863;DHT22;3470;48.738;9.616;2023-06-26T16:52:31;26.70;68.10
6863;DHT22;3470;48.738;9.616;2023-06-26T16:54:56;26.60;68.70
6863;DHT22;3470;48.738;9.616;2023-06-26T16:57:22;26.50;69.10
6863;DHT22;3470;48.738;9.616;2023-06-26T16:59:47;26.50;69.20
6863;DHT22;3470;48.738;9.616;2023-06-26T17:02:13;26.40;69.40
6863;DHT22;3470;48.738;9.616;2023-06-26T17:04:38;26.20;68.90
6863;DHT22;3470;48.738;9.616;2023-06-26T17:07:36;26.20;69.90
6863;DHT22;3470;48.738;9.616;2023-06-26T17:10:02;26.10;69.80
6863;DHT22;3470;48.738;9.616;2023-06-26T17:12:29;26.00;69.90
6863;DHT22;3470;48.738;9.616;2023-06-26T17:14:55;25.90;69.60
6863;DHT22;3470;48.738;9.616;2023-06-26T17:17:20;25.70;69.20
6863;DHT22;3470;48.738;9.616;2023-06-26T17:19:48;25.60;69.50
6863;DHT22;3470;48.738;9.616;2023-06-26T17:22:13;25.60;69.60
6863;DHT22;3470;48.738;9.616;2023-06-26T17:24:39;25.50;68.70
6863;DHT22;3470;48.738;9.616;2023-06-26T17:27:09;25.40;68.30
6863;DHT22;3470;48.738;9.616;2023-06-26T17:29:35;25.30;68.40
6863;DHT22;3470;48.738;9.616;2023-06-26T17:32:01;25.20;67.40
6863;DHT22;3470;48.738;9.616;2023-06-26T17:34:26;25.10;67.30
6863;DHT22;3470;48.738;9.616;2023-06-26T17:36:52;25.10;67.40
6863;DHT22;3470;48.738;9.616;2023-06-26T17:39:17;25.00;67.40
6863;DHT22;3470;48.738;9.616;2023-06-26T17:41:44;25.00;66.40
6863;DHT22;3470;48.738;9.616;2023-06-26T17:44:10;25.00;65.70
6863;DHT22;3470;48.738;9.616;2023-06-26T17:46:36;25.00;66.50
6863;DHT22;3470;48.738;9.616;2023-06-26T17:49:01;25.00;64.30
6863;DHT22;3470;48.738;9.616;2023-06-26T17:51:27;24.90;64.00
6863;DHT22;3470;48.738;9.616;2023-06-26T17:53:52;24.90;63.20
6863;DHT22;3470;48.738;9.616;2023-06-26T17:56:18;24.90;62.60
6863;DHT22;3470;48.738;9.616;2023-06-26T17:58:43;24.80;61.30
6863;DHT22;3470;48.738;9.616;2023-06-26T18:01:09;24.70;60.50
6863;DHT22;3470;48.738;9.616;2023-06-26T18:03:35;24.70;59.60
6863;DHT22;3470;48.738;9.616;2023-06-26T18:06:00;24.70;58.80
6863;DHT22;3470;48.738;9.616;2023-06-26T18:08:27;24.50;58.40
6863;DHT22;3470;48.738;9.616;2023-06-26T18:10:54;24.40;57.00
6863;DHT22;3470;48.738;9.616;2023-06-26T18:13:19;24.30;57.20
6863;DHT22;3470;48.738;9.616;2023-06-26T18:15:45;24.20;56.90
6863;DHT22;3470;48.738;9.616;2023-06-26T18:18:11;24.10;56.90
6863;DHT22;3470;48.738;9.616;2023-06-26T18:20:36;24.10;57.00
6863;DHT22;3470;48.738;9.616;2023-06-26T18:23:02;24.00;56.40
6863;DHT22;3470;48.738;9.616;2023-06-26T18:25:28;23.90;56.00
6863;DHT22;3470;48.738;9.616;2023-06-26T18:27:54;23.80;56.40
6863;DHT22;3470;48.738;9.616;2023-06-26T18:30:19;23.70;56.90
6863;DHT22;3470;48.738;9.616;2023-06-26T18:32:46;23.60;57.10
6863;DHT22;3470;48.738;9.616;2023-06-26T18:35:12;23.50;57.20
6863;DHT22;3470;48.738;9.616;2023-06-26T18:37:37;23.40;57.30
6863;DHT22;3470;48.738;9.616;2023-06-26T18:40:05;23.30;57.40
6863;DHT22;3470;48.738;9.616;2023-06-26T18:42:32;23.20;57.50
6863;DHT22;3470;48.738;9.616;2023-06-26T18:44:58;23.20;57.30
6863;DHT22;3470;48.738;9.616;2023-06-26T18:47:23;23.10;57.20
6863;DHT22;3470;48.738;9.616;2023-06-26T18:49:49;23.00;57.50
6863;DHT22;3470;48.738;9.616;2023-06-26T18:52:14;22.90;57.20
6863;DHT22;3470;48.738;9.616;2023-06-26T18:54:40;22.80;57.60
6863;DHT22;3470;48.738;9.616;2023-06-26T18:57:06;22.70;57.80
6863;DHT22;3470;48.738;9.616;2023-06-26T18:59:31;22.60;58.10
6863;DHT22;3470;48.738;9.616;2023-06-26T19:01:57;22.50;58.20
6863;DHT22;3470;48.738;9.616;2023-06-26T19:04:22;22.40;58.50
6863;DHT22;3470;48.738;9.616;2023-06-26T19:06:49;22.30;58.80
6863;DHT22;3470;48.738;9.616;2023-06-26T19:09:15;22.20;59.20
6863;DHT22;3470;48.738;9.616;2023-06-26T19:11:41;22.10;59.40
6863;DHT22;3470;48.738;9.616;2023-06-26T19:14:06;22.10;59.80
6863;DHT22;3470;48.738;9.616;2023-06-26T19:16:32;22.00;60.10
6863;DHT22;3470;48.738;9.616;2023-06-26T19:18:57;21.90;60.50
6863;DHT22;3470;48.738;9.616;2023-06-26T19:21:25;21.80;60.90
6863;DHT22;3470;48.738;9.616;2023-06-26T19:23:53;21.70;61.40
6863;DHT22;3470;48.738;9.616;2023-06-26T19:26:19;21.60;61.80
6863;DHT22;3470;48.738;9.616;2023-06-26T19:28:44;21.50;62.20
6863;DHT22;3470;48.738;9.616;2023-06-26T19:31:10;21.40;62.60
6863;DHT22;3470;48.738;9.616;2023-06-26T19:33:35;21.20;62.90
6863;DHT22;3470;48.738;9.616;2023-06-26T19:36:02;21.20;63.40
6863;DHT22;3470;48.738;9.616;2023-06-26T19:38:27;21.10;63.80
6863;DHT22;3470;48.738;9.616;2023-06-26T19:40:53;21.00;64.20
6863;DHT22;3470;48.738;9.616;2023-06-26T19:43:18;20.90;64.50
6863;DHT22;3470;48.738;9.616;2023-06-26T19:45:44;20.80;65.00
6863;DHT22;3470;48.738;9.616;2023-06-26T19:48:09;20.70;65.40
6863;DHT22;3470;48.738;9.616;2023-06-26T19:50:35;20.60;66.00
6863;DHT22;3470;48.738;9.616;2023-06-26T19:53:01;20.50;66.40
6863;DHT22;3470;48.738;9.616;2023-06-26T19:55:26;20.40;66.60
6863;DHT22;3470;48.738;9.616;2023-06-26T19:57:52;20.30;66.70
6863;DHT22;3470;48.738;9.616;2023-06-26T20:00:18;20.30;66.70
6863;DHT22;3470;48.738;9.616;2023-06-26T20:02:44;20.30;67.20
6863;DHT22;3470;48.738;9.616;2023-06-26T20:05:10;20.20;67.30
6863;DHT22;3470;48.738;9.616;2023-06-26T20:07:38;20.20;67.40
6863;DHT22;3470;48.738;9.616;2023-06-26T20:10:03;20.10;67.90
6863;DHT22;3470;48.738;9.616;2023-06-26T20:12:31;20.10;68.10
6863;DHT22;3470;48.738;9.616;2023-06-26T20:14:56;20.00;67.90
6863;DHT22;3470;48.738;9.616;2023-06-26T20:17:22;20.10;67.40
6863;DHT22;3470;48.738;9.616;2023-06-26T20:19:47;20.10;67.20
6863;DHT22;3470;48.738;9.616;2023-06-26T20:22:13;20.10;67.40
6863;DHT22;3470;48.738;9.616;2023-06-26T20:24:38;20.00;67.60
6863;DHT22;3470;48.738;9.616;2023-06-26T20:27:04;19.90;67.60
6863;DHT22;3470;48.738;9.616;2023-06-26T20:29:30;19.90;67.90
6863;DHT22;3470;48.738;9.616;2023-06-26T20:31:56;19.90;68.50
6863;DHT22;3470;48.738;9.616;2023-06-26T20:34:22;19.90;68.20
6863;DHT22;3470;48.738;9.616;2023-06-26T20:36:48;19.90;68.30
6863;DHT22;3470;48.738;9.616;2023-06-26T20:39:14;19.80;68.50
6863;DHT22;3470;48.738;9.616;2023-06-26T20:41:40;19.80;68.90
6863;DHT22;3470;48.738;9.616;2023-06-26T20:44:06;19.70;69.30
6863;DHT22;3470;48.738;9.616;2023-06-26T20:46:32;19.60;69.50
6863;DHT22;3470;48.738;9.616;2023-06-26T20:49:01;19.60;69.50
6863;DHT22;3470;48.738;9.616;2023-06-26T20:51:28;19.60;69.80
6863;DHT22;3470;48.738;9.616;2023-06-26T20:53:54;19.50;70.00
6863;DHT22;3470;48.738;9.616;2023-06-26T20:56:21;19.50;70.30
6863;DHT22;3470;48.738;9.616;2023-06-26T20:58:47;19.40;70.50
6863;DHT22;3470;48.738;9.616;2023-06-26T21:01:13;19.50;70.70
6863;DHT22;3470;48.738;9.616;2023-06-26T21:03:38;19.40;70.70
6863;DHT22;3470;48.738;9.616;2023-06-26T21:06:04;19.40;71.10
6863;DHT22;3470;48.738;9.616;2023-06-26T21:08:29;19.40;71.30
6863;DHT22;3470;48.738;9.616;2023-06-26T21:10:55;19.40;71.20
6863;DHT22;3470;48.738;9.616;2023-06-26T21:13:20;19.40;71.60
6863;DHT22;3470;48.738;9.616;2023-06-26T21:15:46;19.30;71.70
6863;DHT22;3470;48.738;9.616;2023-06-26T21:18:11;19.30;71.70
6863;DHT22;3470;48.738;9.616;2023-06-26T21:20:40;19.30;71.80
6863;DHT22;3470;48.738;9.616;2023-06-26T21:23:06;19.30;72.00
6863;DHT22;3470;48.738;9.616;2023-06-26T21:25:31;19.30;72.10
6863;DHT22;3470;48.738;9.616;2023-06-26T21:27:57;19.30;72.30
6863;DHT22;3470;48.738;9.616;2023-06-26T21:30:22;19.30;72.60
6863;DHT22;3470;48.738;9.616;2023-06-26T21:32:48;19.30;72.80
6863;DHT22;3470;48.738;9.616;2023-06-26T21:35:14;19.20;73.00
6863;DHT22;3470;48.738;9.616;2023-06-26T21:37:40;19.10;73.20
6863;DHT22;3470;48.738;9.616;2023-06-26T21:40:06;19.10;73.40
6863;DHT22;3470;48.738;9.616;2023-06-26T21:42:32;19.10;73.50
6863;DHT22;3470;48.738;9.616;2023-06-26T21:44:58;19.10;73.60
6863;DHT22;3470;48.738;9.616;2023-06-26T21:47:24;19.10;73.90
6863;DHT22;3470;48.738;9.616;2023-06-26T21:49:49;19.10;74.00
6863;DHT22;3470;48.738;9.616;2023-06-26T21:52:15;19.00;74.00
6863;DHT22;3470;48.738;9.616;2023-06-26T21:54:40;19.00;74.20
6863;DHT22;3470;48.738;9.616;2023-06-26T21:57:06;19.00;74.60
6863;DHT22;3470;48.738;9.616;2023-06-26T21:59:32;19.00;74.80
6863;DHT22;3470;48.738;9.616;2023-06-26T22:01:57;19.00;74.90
6863;DHT22;3470;48.738;9.616;2023-06-26T22:04:23;19.00;75.20
6863;DHT22;3470;48.738;9.616;2023-06-26T22:06:48;18.90;75.20
6863;DHT22;3470;48.738;9.616;2023-06-26T22:09:14;18.90;75.50
6863;DHT22;3470;48.738;9.616;2023-06-26T22:11:39;18.90;76.50
6863;DHT22;3470;48.738;9.616;2023-06-26T22:14:05;18.80;76.00
6863;DHT22;3470;48.738;9.616;2023-06-26T22:16:30;18.80;76.30
6863;DHT22;3470;48.738;9.616;2023-06-26T22:18:56;18.80;76.30
6863;DHT22;3470;48.738;9.616;2023-06-26T22:21:22;18.70;76.60
6863;DHT22;3470;48.738;9.616;2023-06-26T22:23:49;18.60;76.90
6863;DHT22;3470;48.738;9.616;2023-06-26T22:26:14;18.60;77.20
6863;DHT22;3470;48.738;9.616;2023-06-26T22:28:40;18.60;77.50
6863;DHT22;3470;48.738;9.616;2023-06-26T22:31:05;18.60;77.40
6863;DHT22;3470;48.738;9.616;2023-06-26T22:33:31;18.60;77.60
6863;DHT22;3470;48.738;9.616;2023-06-26T22:35:56;18.60;77.80
6863;DHT22;3470;48.738;9.616;2023-06-26T22:38:22;18.60;77.90
6863;DHT22;3470;48.738;9.616;2023-06-26T22:40:48;18.50;77.90
6863;DHT22;3470;48.738;9.616;2023-06-26T22:43:13;18.60;78.00
6863;DHT22;3470;48.738;9.616;2023-06-26T22:45:39;18.50;78.20
6863;DHT22;3470;48.738;9.616;2023-06-26T22:48:04;18.50;78.30
6863;DHT22;3470;48.738;9.616;2023-06-26T22:50:30;18.50;78.40
6863;DHT22;3470;48.738;9.616;2023-06-26T22:52:56;18.50;78.60
6863;DHT22;3470;48.738;9.616;2023-06-26T22:55:22;18.40;78.70
6863;DHT22;3470;48.738;9.616;2023-06-26T22:57:48;18.40;79.20
6863;DHT22;3470;48.738;9.616;2023-06-26T23:00:14;18.30;79.30
6863;DHT22;3470;48.738;9.616;2023-06-26T23:02:40;18.30;79.60
6863;DHT22;3470;48.738;9.616;2023-06-26T23:05:06;18.20;79.80
6863;DHT22;3470;48.738;9.616;2023-06-26T23:07:34;18.20;80.10
6863;DHT22;3470;48.738;9.616;2023-06-26T23:10:03;18.10;80.20
6863;DHT22;3470;48.738;9.616;2023-06-26T23:12:29;18.10;80.50
6863;DHT22;3470;48.738;9.616;2023-06-26T23:14:54;18.10;80.60
6863;DHT22;3470;48.738;9.616;2023-06-26T23:17:20;18.00;80.80
6863;DHT22;3470;48.738;9.616;2023-06-26T23:19:45;18.00;81.00
6863;DHT22;3470;48.738;9.616;2023-06-26T23:22:14;18.00;81.10
6863;DHT22;3470;48.738;9.616;2023-06-26T23:24:40;17.90;81.60
6863;DHT22;3470;48.738;9.616;2023-06-26T23:27:06;17.80;82.20
6863;DHT22;3470;48.738;9.616;2023-06-26T23:29:35;17.70;82.20
6863;DHT22;3470;48.738;9.616;2023-06-26T23:32:01;17.70;82.00
6863;DHT22;3470;48.738;9.616;2023-06-26T23:34:33;17.70;82.40
6863;DHT22;3470;48.738;9.616;2023-06-26T23:37:07;17.70;82.50
6863;DHT22;3470;48.738;9.616;2023-06-26T23:39:34;17.70;82.70
6863;DHT22;3470;48.738;9.616;2023-06-26T23:42:02;17.60;82.80
6863;DHT22;3470;48.738;9.616;2023-06-26T23:44:29;17.60;82.90
6863;DHT22;3470;48.738;9.616;2023-06-26T23:46:55;17.60;83.60
